Archival Weather

Fukuoka

Fukuoka, Japan (RJFF)

Report from: Tuesday, August 16, 2022 5:00 AM JST
Current time: Sunday, November 27, 2022 5:53 PM JST

Current weather
Weather history
Weather forecast

Temperature29.0°C (84.2°F)
Heat index33.7°C (92.7°F)
Dew point24.0°C (75.2°F)
Winds 13 kts (6.7 m/s, 15 mph) South-Southwest (210°)
Visibility6.2 mi. (10 km)
Clouds Few clouds 3,400 ft. (1,036 m)
Scattered clouds 4,300 ft. (1,311 m)
Ceiling: Broken clouds 6,000 ft. (1,829 m)
Altimeter29.71 in.Hg (1006 mB)
Relative humidity75 %
Density altitude2,251 ft. (686 m)
Remarks Fully automated report
No significant changes expected in the next two hours
Flight conditions Visual Meteorological Conditions
Raw dataRJFF 152000Z AUTO 21013KT 9999 FEW034 SCT043 BKN060 //////TCU 29/24 Q1006 NOSIG
An error has occurred. This application may no longer respond until reloaded. Reload 🗙